Etusivu
METAR-TAF:

METAR-TAF

Lentoasemat :

Taškent, Uzbekistan

Leveyspiiri: 41-16N, Pituuspiiri: 069-16E, korkeus merenpinnasta: 489 m

Tämänhetkinen sää

Tämä raportti tehtiin 40 minuuttia sitten, kello 04.00 UTC
Tuuli 4 kn etelästä, vaihdellen idän/kaakon ja etelän/lounaan välillä
Lämpötila 33°C
Kosteus 24%
Ilmanpaine 1002 hPa
Näkyvyys 10 km tai enemmän
ei pilviä alle 1500 m:ssä eikä cumulonimbus-pilviä

METAR: UTTT 220400Z 17004KT 110V200 CAVOK 33/10 Q1002 R08L/CLRD70 NOSIG

Aika: 09:40 (04:40 UTC)

Sääennuste

Tämä raportti tehtiin 5 tuntia ja 40 minuuttia sitten, kello 23.00 UTC
Ennuste voimassa 22. päivästä klo 00 UTC - 22. päivään klo 24 UTC
Tuuli 10 kn idästä
Näkyvyys 10 km tai enemmän
ei pilviä alle 1500 m:ssä eikä cumulonimbus-pilviä

TAF: UTTT 212300Z 2200/2224 08010KT CAVOK TX41/2210Z

Säähavainnot ja -ennusteet yli 4000 lentoasemalta (METAR- ja TAF-raportit).

Käytössä olevat sääasemat on merkitty karttaan keltaisilla ja punaisilla pisteillä.

Aseta hiiri pisteen päälle nähdäksesi sääaseman nimen.

Klikkaa sitten nähdäksesi säähavainnot ja -ennusteet.

Kartan vaihtaminen: klikkaa mustalla rastilla varustettuja vihreitä pisteitä, niin voit zoomata sisään; viivalla varustettua vihreää pistettä, niin voit zoomata ulos tai vihreitä nuolia, niin pääset viereisille kartoille.


METAR-TAF: